Craig, AK

2:03 PM AKDT on July 22, 2014 (GMT -0800)
Klawock (PAKW) Elev 79 ft | 55.58 °N, 133.08 °W | Change Station

Current weather conditions updated 10 minutes ago

Clear
Clear
65 °F
Feels Like 65 °F
N
6
Wind Variable Wind from SW

Today is forecast to be nearly the same temperature as yesterday.

Today
High -- | Low -- °F
--% Chance of Precip.
Yesterday
High -- | Low -- °F
Precip. -- in
4:42 AM 9:14 PM
Waning Crescent, 15% visible
Pressure 30.06 in
Visibility 10.0 miles
Clouds Clear
Dew Point 55 °F
Humidity 70%
Rainfall 0.02 in
Snow Depth Not available.
UV 8 out of 12
Pollen Not available.
Air Quality Not available.
Flu Activity Not available.
METAR PAKW 222153Z AUTO 23005KT 10SM CLR 18/13 A3006 RMK AO2 SLP179 T01830128 TSNO $

More Conditions Fewer Conditions

Pressure 30.06 in
Visibility 10.0 miles
Clouds Clear
Dew Point 55 °F
Humidity 70%
Rainfall 0.02 in
Snow Depth Not available.
UV 8 out of 12
Pollen Not available.
Air Quality Not available.
Flu Activity Not available.
METAR PAKW 222153Z AUTO 23005KT 10SM CLR 18/13 A3006 RMK AO2 SLP179 T01830128 TSNO $

More Conditions Fewer Conditions

10-Day Weather Forecast

Almanac

Astronomy

Jul. 22, 2014 Rise Set
Actual Time 4:42 AM AKDT 9:14 PM AKDT
Civil Twilight 3:50 AM AKDT 10:05 PM AKDT
Nautical Twilight 2:27 AM AKDT 11:27 PM AKDT
Astronomical Twilight Sun does not rise Sun does not rise
Moon 1:28 AM AKDT 5:53 PM AKDT
Length of Visible Light 18h 15m
Length of Day
16h 32m
Tomorrow will be 3m 16s shorter.
Waning Crescent, 15% of the Moon is Illuminated
Today
Waning Crescent
Jul 26
New
Aug 3
First Quarter
Aug 10
Full
Aug 17
Last Quarter

Today's Extremes

State Highs State Lows

Community

WunderPhotos

Upload Photos

1,736,372 photos uploaded!

Nearby

Snow Depth

Station Depth Elevation
Long Lake 0 in 820 ft
Grouse Creek Divide 0 in 700 ft
Grandview 2 in 1100 ft
Cooper Lake 21 in 1200 ft
Summit Creek 0 in 1400 ft

Earthquake Activity

City Distance Mag. Time & Date
No recent earthquake activity has been reported nearby.
Minimum magnitude displayed is 2.5.

Coastal Water Temperatures

Place Temperature
No Stations Reporting

Nearby Weather Stations

Station Location Temp. Heat Index Dew Point Humidity Wind Precip. Elev Updated Type
MISC Craig, Watertower Road, AK , Craig, AK 61 °F - 52 °F 72% ENE  at  1 mph 0.00 in / hr 95 ft 12:17 PM AKDT MADIS
RAWS HAIDA AK, Hydaburg, AK 71 °F 77 °F 51 °F 49% WNW  at  4 mph 0.00 in / hr 670 ft 12:55 PM AKDT MADIS
RAWS THORNE RIVER AK, Ketchikan, AK 75 °F 77 °F 59 °F 57% East  at  2 mph 0.00 in / hr 600 ft 12:54 PM AKDT MADIS

Show More Stations Show Fewer Stations